createdAt,value
2019-03-10T00:00:32.418Z,7.70
2019-03-10T00:03:01.314Z,12.17
2019-03-10T00:05:30.600Z,11.60
2019-03-10T00:08:00.318Z,10.63
2019-03-10T00:10:29.320Z,15.50
2019-03-10T00:12:58.216Z,12.07
2019-03-10T00:15:27.184Z,11.60
2019-03-10T00:17:56.386Z,12.63
2019-03-10T00:20:25.165Z,11.43
2019-03-10T00:22:54.060Z,11.27
2019-03-10T00:25:22.811Z,15.77
2019-03-10T00:27:51.770Z,13.33
2019-03-10T00:30:20.825Z,18.13
2019-03-10T00:32:49.677Z,18.23
2019-03-10T00:35:18.708Z,17.00
2019-03-10T00:37:49.043Z,16.17
2019-03-10T00:41:05.433Z,17.53
2019-03-10T00:44:11.576Z,13.20
2019-03-10T00:47:13.552Z,22.63
2019-03-10T00:50:16.128Z,19.90
2019-03-10T00:53:00.171Z,13.70
2019-03-10T00:55:30.151Z,17.00
2019-03-10T00:58:00.280Z,17.40
2019-03-10T01:00:29.089Z,16.27
2019-03-10T01:02:57.888Z,16.67
2019-03-10T01:05:26.977Z,20.03
2019-03-10T01:07:55.763Z,19.53
2019-03-10T01:10:24.655Z,19.73
2019-03-10T01:12:53.599Z,23.43
2019-03-10T01:15:22.382Z,17.53
2019-03-10T01:17:53.151Z,19.87
2019-03-10T01:20:22.156Z,22.83
2019-03-10T01:22:51.467Z,17.50
2019-03-10T01:25:20.564Z,34.60
2019-03-10T01:27:52.545Z,35.03
2019-03-10T01:30:21.911Z,23.43
2019-03-10T01:33:20.253Z,15.93
2019-03-10T01:35:49.021Z,20.70
2019-03-10T01:38:17.728Z,16.70
2019-03-10T01:40:46.672Z,25.93
2019-03-10T01:43:15.600Z,24.40
2019-03-10T01:45:44.476Z,26.40
2019-03-10T01:48:13.215Z,20.57
2019-03-10T01:50:42.218Z,16.83
2019-03-10T01:53:11.053Z,21.57
2019-03-10T01:55:39.905Z,16.70
2019-03-10T01:58:09.946Z,23.57
2019-03-10T02:00:39.218Z,24.10
2019-03-10T02:03:08.156Z,19.17
2019-03-10T02:05:37.170Z,16.97
2019-03-10T02:08:05.999Z,15.23
2019-03-10T02:10:34.868Z,20.07
2019-03-10T02:13:03.864Z,17.50
2019-03-10T02:15:32.899Z,18.83
2019-03-10T02:18:01.701Z,15.93
2019-03-10T02:20:30.927Z,15.03
2019-03-10T02:22:59.897Z,19.23
2019-03-10T02:25:28.790Z,18.27
2019-03-10T02:28:01.401Z,19.60
2019-03-10T02:30:30.085Z,18.70
2019-03-10T02:32:58.933Z,17.93
2019-03-10T02:35:27.667Z,21.80
2019-03-10T02:37:56.353Z,19.33
2019-03-10T02:40:25.325Z,17.17
2019-03-10T02:42:54.324Z,17.17
2019-03-10T02:45:23.053Z,20.67
2019-03-10T02:47:54.958Z,19.73
2019-03-10T02:50:23.680Z,20.87
2019-03-10T02:52:52.555Z,21.00
2019-03-10T02:55:21.277Z,15.40
2019-03-10T02:57:50.245Z,19.83
2019-03-10T03:00:19.122Z,14.37
2019-03-10T03:02:47.823Z,16.67
2019-03-10T03:05:16.630Z,18.77
2019-03-10T03:07:46.087Z,15.17
2019-03-10T03:10:16.017Z,21.17
2019-03-10T03:12:44.828Z,16.47
2019-03-10T03:15:13.718Z,19.83
2019-03-10T03:17:43.148Z,21.43
2019-03-10T03:20:12.541Z,24.30
2019-03-10T03:22:41.347Z,18.00
2019-03-10T03:25:10.353Z,25.73
2019-03-10T03:27:39.150Z,15.97
2019-03-10T03:30:09.141Z,16.73
2019-03-10T03:32:38.076Z,18.60
2019-03-10T03:35:54.435Z,19.20
2019-03-10T03:38:32.014Z,17.93
2019-03-10T03:41:04.071Z,13.30
2019-03-10T03:43:32.778Z,14.47
2019-03-10T03:46:01.680Z,22.47
2019-03-10T03:48:30.600Z,19.20
2019-03-10T03:50:59.309Z,17.93
2019-03-10T03:53:28.337Z,12.77
2019-03-10T03:55:57.133Z,12.33
2019-03-10T03:58:25.945Z,14.00
2019-03-10T04:01:01.946Z,14.97
2019-03-10T04:03:31.216Z,20.87
2019-03-10T04:06:00.242Z,17.03
2019-03-10T04:08:29.226Z,14.00
2019-03-10T04:10:57.948Z,16.80
2019-03-10T04:13:27.248Z,13.83
2019-03-10T04:15:56.187Z,20.13
2019-03-10T04:18:25.029Z,10.87
2019-03-10T04:20:53.830Z,15.50
2019-03-10T04:23:23.806Z,14.93
2019-03-10T04:25:52.469Z,13.83
2019-03-10T04:28:21.307Z,13.67
2019-03-10T04:30:50.801Z,12.07
2019-03-10T04:33:19.630Z,9.87
2019-03-10T04:35:48.378Z,13.90
2019-03-10T04:38:17.859Z,15.30
2019-03-10T04:40:46.580Z,12.50
2019-03-10T04:43:15.400Z,11.10
2019-03-10T04:45:44.117Z,13.13
2019-03-10T04:48:13.809Z,11.33
2019-03-10T04:50:42.517Z,10.40
2019-03-10T04:53:11.312Z,13.10
2019-03-10T04:55:59.124Z,12.77
2019-03-10T04:58:28.173Z,13.70
2019-03-10T05:00:58.446Z,13.60
2019-03-10T05:03:27.230Z,9.60
2019-03-10T05:05:55.938Z,8.57
2019-03-10T05:08:24.813Z,12.37
2019-03-10T05:10:53.525Z,10.97
2019-03-10T05:13:22.240Z,16.47
2019-03-10T05:15:51.159Z,11.67
2019-03-10T05:18:20.136Z,12.13
2019-03-10T05:20:49.287Z,9.00
2019-03-10T05:23:35.527Z,14.80
2019-03-10T05:26:04.605Z,10.93
2019-03-10T05:28:34.944Z,11.70
2019-03-10T05:31:03.789Z,11.50
2019-03-10T05:33:32.820Z,11.63
2019-03-10T05:36:01.545Z,11.10
2019-03-10T05:38:30.279Z,10.47
2019-03-10T05:40:59.800Z,9.43
2019-03-10T05:43:28.521Z,12.33
2019-03-10T05:45:57.407Z,9.93
2019-03-10T05:48:26.233Z,11.53
2019-03-10T05:50:55.028Z,10.87
2019-03-10T05:53:23.827Z,11.50
2019-03-10T05:55:52.533Z,10.40
2019-03-10T05:58:22.229Z,8.00
2019-03-10T06:00:50.997Z,10.03
2019-03-10T06:03:19.798Z,14.43
2019-03-10T06:05:48.828Z,14.27
2019-03-10T06:08:17.673Z,11.70
2019-03-10T06:10:46.432Z,9.97
2019-03-10T06:13:15.863Z,10.60
2019-03-10T06:15:44.732Z,8.73
2019-03-10T06:18:14.231Z,9.93
2019-03-10T06:20:43.047Z,10.60
2019-03-10T06:23:12.556Z,11.07
2019-03-10T06:25:41.774Z,8.13
2019-03-10T06:28:10.473Z,10.23
2019-03-10T06:30:39.596Z,8.07
2019-03-10T06:33:08.437Z,6.20
2019-03-10T06:35:37.423Z,7.47
2019-03-10T06:38:06.121Z,9.17
2019-03-10T06:40:35.056Z,7.03
2019-03-10T06:43:03.857Z,5.07
2019-03-10T06:45:32.728Z,5.80
2019-03-10T06:48:01.693Z,10.13
2019-03-10T06:50:30.683Z,6.20
2019-03-10T06:52:59.392Z,6.73
2019-03-10T06:55:28.185Z,4.10
2019-03-10T06:57:57.603Z,4.83
2019-03-10T07:00:26.321Z,6.57
2019-03-10T07:02:55.030Z,4.83
2019-03-10T07:05:23.820Z,7.43
2019-03-10T07:07:52.964Z,4.20
2019-03-10T07:10:21.671Z,6.07
2019-03-10T07:12:50.391Z,5.70
2019-03-10T07:15:19.305Z,5.40
2019-03-10T07:17:48.547Z,3.63
2019-03-10T07:20:17.691Z,3.90
2019-03-10T07:22:46.728Z,3.40
2019-03-10T07:25:15.515Z,2.93
2019-03-10T07:27:50.770Z,2.53
2019-03-10T07:30:32.051Z,4.27
2019-03-10T07:33:20.197Z,4.07
2019-03-10T07:35:57.609Z,6.23
2019-03-10T07:38:54.897Z,3.67
2019-03-10T07:41:42.366Z,5.47
2019-03-10T07:44:16.462Z,3.37
2019-03-10T07:46:51.119Z,1.77
2019-03-10T07:49:30.816Z,3.00
2019-03-10T07:52:20.491Z,2.70
2019-03-10T07:55:13.124Z,1.40
2019-03-10T07:58:16.252Z,1.17
2019-03-10T08:00:57.763Z,6.90
2019-03-10T08:03:39.157Z,7.33
2019-03-10T08:06:17.892Z,1.37
2019-03-10T08:09:04.552Z,3.97
2019-03-10T08:11:42.312Z,2.67
2019-03-10T08:14:30.182Z,2.63
2019-03-10T08:17:05.232Z,2.47
2019-03-10T08:19:51.864Z,2.67
2019-03-10T08:22:45.880Z,1.73
2019-03-10T08:25:23.988Z,2.90
2019-03-10T08:28:09.401Z,1.00
2019-03-10T08:31:00.057Z,2.97
2019-03-10T08:33:47.988Z,6.30
2019-03-10T08:36:35.951Z,2.60
2019-03-10T08:39:34.939Z,3.60
2019-03-10T08:42:20.094Z,3.07
2019-03-10T08:44:53.107Z,1.27
2019-03-10T08:47:43.871Z,5.37
2019-03-10T08:50:24.499Z,2.27
2019-03-10T08:52:58.635Z,2.70
2019-03-10T08:55:40.729Z,1.97
2019-03-10T08:58:22.852Z,2.50
2019-03-10T09:01:13.535Z,1.70
2019-03-10T09:04:01.580Z,2.03
2019-03-10T09:06:48.029Z,1.00
2019-03-10T09:09:24.816Z,1.47
2019-03-10T09:12:01.255Z,3.37
2019-03-10T09:14:48.443Z,1.40
2019-03-10T09:17:25.860Z,1.37
2019-03-10T09:20:12.324Z,1.10
2019-03-10T09:22:49.133Z,1.50
2019-03-10T09:25:48.826Z,2.40
2019-03-10T09:28:31.972Z,3.50
2019-03-10T09:31:11.117Z,3.43
2019-03-10T09:34:02.171Z,2.67
2019-03-10T09:36:50.644Z,3.53
2019-03-10T09:39:50.541Z,2.13
2019-03-10T09:42:44.265Z,4.17
2019-03-10T09:45:30.669Z,2.33
2019-03-10T09:48:16.557Z,4.37
2019-03-10T09:51:03.383Z,7.23
2019-03-10T09:53:51.425Z,6.70
2019-03-10T09:56:38.113Z,5.93
2019-03-10T09:59:26.250Z,4.93
2019-03-10T10:02:17.788Z,6.73
2019-03-10T10:04:55.864Z,8.13
2019-03-10T10:07:42.566Z,9.93
2019-03-10T10:10:23.439Z,4.73
2019-03-10T10:13:29.457Z,5.90
2019-03-10T10:16:20.534Z,2.90
2019-03-10T10:19:08.880Z,4.80
2019-03-10T10:22:15.152Z,8.20
2019-03-10T10:25:05.837Z,6.73
2019-03-10T10:27:52.392Z,4.77
2019-03-10T10:30:43.121Z,6.67
2019-03-10T10:33:19.449Z,5.37
2019-03-10T10:36:10.930Z,4.93
2019-03-10T10:38:50.469Z,5.13
2019-03-10T10:41:38.576Z,3.33
2019-03-10T10:44:21.064Z,5.70
2019-03-10T10:47:08.986Z,2.27
2019-03-10T10:49:59.336Z,3.53
2019-03-10T10:52:36.117Z,3.93
2019-03-10T10:55:27.548Z,5.00
2019-03-10T10:58:05.308Z,2.40
2019-03-10T11:00:53.562Z,6.93
2019-03-10T11:31:51.486Z,7.97
2019-03-10T11:34:37.736Z,7.80
2019-03-10T11:37:30.512Z,10.67
2019-03-10T11:40:17.594Z,6.83
2019-03-10T11:42:56.439Z,8.80
2019-03-10T11:45:46.149Z,8.97
2019-03-10T11:48:37.113Z,8.17
2019-03-10T11:51:25.575Z,4.87
2019-03-10T11:54:06.661Z,4.27
2019-03-10T11:57:00.018Z,5.10
2019-03-10T11:59:40.394Z,7.57
2019-03-10T12:02:30.692Z,8.30
2019-03-10T12:05:18.974Z,5.03
2019-03-10T12:16:05.329Z,4.80
2019-03-10T12:18:38.969Z,6.03
2019-03-10T12:21:09.056Z,8.47
2019-03-10T12:23:38.364Z,12.63
2019-03-10T12:26:10.890Z,9.87
2019-03-10T12:28:41.646Z,8.07
2019-03-10T12:31:14.673Z,4.90
2019-03-10T12:33:48.545Z,8.77
2019-03-10T12:39:10.856Z,12.93
2019-03-10T12:41:43.123Z,11.83
2019-03-10T12:46:57.906Z,5.50
2019-03-10T12:49:28.217Z,9.37
2019-03-10T12:51:59.246Z,9.40
2019-03-10T12:54:31.174Z,8.67
2019-03-10T12:57:03.542Z,7.67
2019-03-10T12:59:37.226Z,6.17
2019-03-10T13:05:46.665Z,6.17
2019-03-10T13:08:19.291Z,5.53
2019-03-10T13:10:49.524Z,2.83
2019-03-10T13:13:18.848Z,2.93
2019-03-10T13:15:48.325Z,4.60
2019-03-10T13:18:20.085Z,4.50
2019-03-10T13:20:54.161Z,3.50
2019-03-10T13:23:23.597Z,3.10
2019-03-10T13:25:55.049Z,2.73
2019-03-10T13:28:24.271Z,5.60
2019-03-10T13:30:54.297Z,8.20
2019-03-10T13:33:23.628Z,6.20
2019-03-10T13:35:53.119Z,8.20
2019-03-10T13:38:30.121Z,8.37
2019-03-10T13:41:24.647Z,9.80
2019-03-10T13:43:54.586Z,10.70
2019-03-10T13:46:25.396Z,10.67
2019-03-10T13:48:55.050Z,11.77
2019-03-10T13:51:24.152Z,7.90
2019-03-10T13:53:53.203Z,5.53
2019-03-10T13:56:21.924Z,9.40
2019-03-10T13:58:54.059Z,8.93
2019-03-10T14:01:25.926Z,9.87
2019-03-10T14:03:54.624Z,10.63
2019-03-10T14:09:42.156Z,4.50
2019-03-10T14:12:10.865Z,4.20
2019-03-10T14:15:30.123Z,4.47
2019-03-10T14:18:29.978Z,2.63
2019-03-10T14:21:04.336Z,4.30
2019-03-10T14:24:16.256Z,4.23
2019-03-10T14:26:46.838Z,5.17
2019-03-10T14:29:16.222Z,4.63
2019-03-10T14:31:45.700Z,5.23
2019-03-10T14:34:41.834Z,6.27
2019-03-10T14:37:12.262Z,5.07
2019-03-10T14:39:41.644Z,5.20
2019-03-10T14:42:11.382Z,2.47
2019-03-10T14:44:40.591Z,3.90
2019-03-10T14:47:09.824Z,2.40
2019-03-10T14:49:39.028Z,6.10
2019-03-10T14:52:08.828Z,2.53
2019-03-10T14:54:38.961Z,6.07
2019-03-10T14:57:07.659Z,3.00
2019-03-10T14:59:36.356Z,3.27
2019-03-10T15:02:05.569Z,2.90
2019-03-10T15:04:34.380Z,2.93
2019-03-10T15:07:03.383Z,2.20
2019-03-10T15:09:32.340Z,2.30
2019-03-10T15:12:01.208Z,2.10
2019-03-10T15:14:29.912Z,2.77
2019-03-10T15:17:02.237Z,5.70
2019-03-10T15:19:30.116Z,2.47
2019-03-10T15:21:59.385Z,5.17
2019-03-10T15:24:28.109Z,2.53
2019-03-10T15:26:56.948Z,3.80
2019-03-10T15:29:25.650Z,4.27
2019-03-10T15:31:54.899Z,2.17
2019-03-10T15:34:23.633Z,1.67
2019-03-10T15:36:52.325Z,3.60
2019-03-10T15:39:21.501Z,4.03
2019-03-10T15:41:50.215Z,2.40
2019-03-10T15:44:19.103Z,1.53
2019-03-10T15:46:48.119Z,3.23
2019-03-10T15:49:16.860Z,2.67
2019-03-10T15:51:45.584Z,3.80
2019-03-10T15:54:15.020Z,1.87
2019-03-10T15:56:43.901Z,2.13
2019-03-10T15:59:12.824Z,1.33
2019-03-10T16:01:41.606Z,1.97
2019-03-10T16:04:22.090Z,1.87
2019-03-10T16:06:53.925Z,1.07
2019-03-10T16:09:22.960Z,1.33
2019-03-10T16:11:51.855Z,1.90
2019-03-10T16:14:24.075Z,2.23
2019-03-10T16:16:52.912Z,1.03
2019-03-10T16:19:21.621Z,1.27
2019-03-10T16:21:50.436Z,0.60
2019-03-10T16:24:19.225Z,1.40
2019-03-10T16:26:48.316Z,1.67
2019-03-10T16:29:17.323Z,0.90
2019-03-10T16:31:46.052Z,1.00
2019-03-10T16:34:14.993Z,2.70
2019-03-10T16:36:43.691Z,0.80
2019-03-10T16:39:12.920Z,0.70
2019-03-10T16:41:41.629Z,1.67
2019-03-10T16:44:10.756Z,0.60
2019-03-10T16:46:39.642Z,0.70
2019-03-10T16:49:08.524Z,0.47
2019-03-10T16:51:37.511Z,0.70
2019-03-10T16:54:12.549Z,0.73
2019-03-10T16:56:41.850Z,0.97
2019-03-10T16:59:11.756Z,2.57
2019-03-10T17:01:40.563Z,0.60
2019-03-10T17:04:09.369Z,2.07
2019-03-10T17:06:38.196Z,1.63
2019-03-10T17:09:18.286Z,1.50
2019-03-10T17:11:47.984Z,0.50
2019-03-10T17:14:16.852Z,0.60
2019-03-10T17:16:46.244Z,0.70
2019-03-10T17:19:15.064Z,0.60
2019-03-10T17:21:43.788Z,1.10
2019-03-10T17:24:15.593Z,1.10
2019-03-10T17:26:44.560Z,8.60
2019-03-10T17:29:15.447Z,1.33
2019-03-10T17:31:43.896Z,1.50
2019-03-10T17:34:12.595Z,1.17
2019-03-10T17:36:41.580Z,1.83
2019-03-10T17:39:10.359Z,1.40
2019-03-10T17:41:39.059Z,1.67
2019-03-10T17:44:08.060Z,2.27
2019-03-10T17:46:37.036Z,2.00
2019-03-10T17:49:05.828Z,1.97
2019-03-10T17:51:34.985Z,2.40
2019-03-10T17:54:04.017Z,3.87
2019-03-10T17:56:35.088Z,2.97
2019-03-10T17:59:04.062Z,2.50
2019-03-10T18:01:33.129Z,2.17
2019-03-10T18:04:01.906Z,2.30
2019-03-10T18:06:30.603Z,2.37
2019-03-10T18:08:59.587Z,2.53
2019-03-10T18:11:28.633Z,2.20
2019-03-10T18:13:57.785Z,2.43
2019-03-10T18:16:26.524Z,3.30
2019-03-10T18:18:55.526Z,3.50
2019-03-10T18:21:26.420Z,4.23
2019-03-10T18:23:55.611Z,5.10
2019-03-10T18:26:24.646Z,5.27
2019-03-10T18:28:53.593Z,4.50
2019-03-10T18:31:22.289Z,5.40
2019-03-10T18:33:51.164Z,4.57
2019-03-10T18:36:20.085Z,4.17
2019-03-10T18:38:49.208Z,3.93
2019-03-10T18:41:18.016Z,7.93
2019-03-10T18:43:47.013Z,6.40
2019-03-10T18:46:15.723Z,4.27
2019-03-10T18:48:44.482Z,4.30
2019-03-10T18:51:13.529Z,4.50
2019-03-10T18:53:42.232Z,3.60
2019-03-10T18:56:11.574Z,3.30
2019-03-10T18:58:40.252Z,3.13
2019-03-10T19:01:09.041Z,6.57
2019-03-10T19:03:38.636Z,3.10
2019-03-10T19:06:07.825Z,2.07
2019-03-10T19:08:37.025Z,2.60
2019-03-10T19:11:05.839Z,2.30
2019-03-10T19:13:35.053Z,2.47
2019-03-10T19:16:05.758Z,1.87
2019-03-10T19:18:34.638Z,1.77
2019-03-10T19:21:03.444Z,1.97
2019-03-10T19:23:32.196Z,2.83
2019-03-10T19:26:01.592Z,2.83
2019-03-10T19:28:30.340Z,2.00
2019-03-10T19:30:59.032Z,3.00
2019-03-10T19:33:28.215Z,1.97
2019-03-10T19:35:56.914Z,2.57
2019-03-10T19:38:25.620Z,2.03
2019-03-10T19:40:55.479Z,2.53
2019-03-10T19:43:25.000Z,3.00
2019-03-10T19:45:53.904Z,2.27
2019-03-10T19:48:22.684Z,1.97
2019-03-10T19:50:51.425Z,2.40
2019-03-10T19:53:20.512Z,1.70
2019-03-10T19:55:49.216Z,1.90
2019-03-10T19:58:18.095Z,0.90
2019-03-10T20:00:46.968Z,0.83
2019-03-10T20:03:16.097Z,0.67
2019-03-10T20:05:44.866Z,1.73
2019-03-10T20:08:13.677Z,1.20
2019-03-10T20:10:42.735Z,2.27
2019-03-10T20:13:12.532Z,2.23
2019-03-10T20:15:41.473Z,1.87
2019-03-10T20:18:10.404Z,1.53
2019-03-10T20:20:39.171Z,2.17
2019-03-10T20:23:08.148Z,2.90
2019-03-10T20:25:36.856Z,4.97
2019-03-10T20:28:05.556Z,3.10
2019-03-10T20:30:34.592Z,2.33
2019-03-10T20:33:03.374Z,2.10
2019-03-10T20:35:32.064Z,2.00
2019-03-10T20:38:01.029Z,1.13
2019-03-10T20:40:29.738Z,2.67
2019-03-10T20:42:58.458Z,2.90
2019-03-10T20:45:27.488Z,1.33
2019-03-10T20:47:56.971Z,2.77
2019-03-10T20:50:25.863Z,1.23
2019-03-10T20:52:54.773Z,1.03
2019-03-10T20:55:24.356Z,1.17
2019-03-10T20:57:53.074Z,1.20
2019-03-10T21:00:22.214Z,2.90
2019-03-10T21:02:51.056Z,2.47
2019-03-10T21:05:19.815Z,1.40
2019-03-10T21:07:48.667Z,3.17
2019-03-10T21:10:18.173Z,1.97
2019-03-10T21:12:46.884Z,2.43
2019-03-10T21:15:18.496Z,1.97
2019-03-10T21:17:47.568Z,2.27
2019-03-10T21:20:17.864Z,2.07
2019-03-10T21:22:46.871Z,5.13
2019-03-10T21:25:19.100Z,5.00
2019-03-10T21:27:47.891Z,3.63
2019-03-10T21:30:18.891Z,4.63
2019-03-10T21:32:47.752Z,2.87
2019-03-10T21:35:17.810Z,3.23
2019-03-10T21:37:46.901Z,5.00
2019-03-10T21:40:20.255Z,4.00
2019-03-10T21:42:50.966Z,3.13
2019-03-10T21:45:20.584Z,3.37
2019-03-10T21:47:49.648Z,4.27
2019-03-10T21:50:19.419Z,4.70
2019-03-10T21:52:48.117Z,2.40
2019-03-10T21:55:17.213Z,3.33
2019-03-10T21:57:46.091Z,5.40
2019-03-10T22:00:16.451Z,6.00
2019-03-10T22:02:45.215Z,7.60
2019-03-10T22:05:14.066Z,4.93
2019-03-10T22:07:43.155Z,5.13
2019-03-10T22:10:12.859Z,4.37
2019-03-10T22:12:42.740Z,3.73
2019-03-10T22:15:14.247Z,2.87
2019-03-10T22:17:44.187Z,4.23
2019-03-10T22:20:14.476Z,4.03
2019-03-10T22:22:49.179Z,4.77
2019-03-10T22:25:14.728Z,3.23
2019-03-10T22:27:45.807Z,2.60
2019-03-10T22:30:16.070Z,4.67
2019-03-10T22:32:44.992Z,5.20
2019-03-10T22:35:14.045Z,4.70
2019-03-10T22:37:42.848Z,8.27
2019-03-10T22:40:12.341Z,5.80
2019-03-10T22:42:41.344Z,4.50
2019-03-10T22:45:12.301Z,3.63
2019-03-10T22:47:41.225Z,1.97
2019-03-10T22:50:11.574Z,4.33
2019-03-10T22:52:40.505Z,5.50
2019-03-10T22:55:09.840Z,4.40
2019-03-10T22:57:38.792Z,2.93
2019-03-10T23:00:13.796Z,5.83
2019-03-10T23:02:42.711Z,3.40
2019-03-10T23:05:11.591Z,2.43
2019-03-10T23:07:40.408Z,4.33
2019-03-10T23:10:11.596Z,4.33
2019-03-10T23:12:40.480Z,8.20
2019-03-10T23:15:11.318Z,4.10
2019-03-10T23:17:40.104Z,5.33
2019-03-10T23:20:11.161Z,4.80
2019-03-10T23:22:40.548Z,5.03
2019-03-10T23:25:09.332Z,3.87
2019-03-10T23:27:38.325Z,4.90
2019-03-10T23:30:08.880Z,4.90
2019-03-10T23:32:38.656Z,6.23
2019-03-10T23:35:07.465Z,4.47
2019-03-10T23:37:36.376Z,3.83
2019-03-10T23:40:05.987Z,6.80
2019-03-10T23:42:35.045Z,6.80
2019-03-10T23:45:04.159Z,5.77
2019-03-10T23:47:35.067Z,3.47
2019-03-10T23:50:04.661Z,4.83
2019-03-10T23:52:33.359Z,3.03
2019-03-10T23:55:02.665Z,8.90
2019-03-10T23:57:31.544Z,6.23
